F/V Mare Liberum — FVHW — position and weather

sailwx.info

Track history (hours):
 
Tides and Currents Weather Stations Pressure Air Temp Water Temp Dewpoint Dewpoint Depression Visibility Wind Speed Wind Dir Waves Ship Positions

F/V Mare Liberum

Last reported at 2016-Feb-03 23:31 UTC. Time now 2016-Feb-06 00:14 UTC.
Position N 46°59' W 002°23'.

Length 21 m.

Type: Fishing. MMSI: 227426000.

Date/timePositionNaut miles runAvg speedWind from/ knotsBaromVisibWave heightAir tempDewpointWater temp
2016-Feb-03 23:31N 46°59' W 002°23'4 4.3
2016-Feb-03 22:33N 47°02' W 002°18'0 0.0
2016-Feb-03 21:33N 47°02' W 002°18'8 2.7
2016-Feb-03 18:27N 46°54' W 002°23'24 8.2
2016-Feb-03 15:32N 46°30' W 002°16'21 0.5
2016-Feb-02 00:28N 46°14' W 001°57'8 8.9
2016-Feb-01 23:33N 46°21' W 001°52'9 8.9
2016-Feb-01 22:33N 46°29' W 001°47'6 6.2
2016-Feb-01 21:33N 46°23' W 001°50'33 3.2
2016-Feb-01 11:13N 45°54' W 002°10'1 1.6
2016-Feb-01 10:29N 45°55' W 002°10'1 1.0
2016-Feb-01 09:31N 45°56' W 002°09'1 1.5
2016-Feb-01 08:32N 45°54' W 002°09'  
2016-Jan-28 03:05N 47°02' W 002°18'0 0.0
2016-Jan-28 02:28N 47°02' W 002°18'0 0.0
2016-Jan-27 23:05N 47°01' W 002°18'0 0.0
2016-Jan-27 05:30N 47°01' W 002°18'0 0.0
2016-Jan-27 04:33N 47°01' W 002°18'0 0.0
2016-Jan-27 03:29N 47°01' W 002°18'0 0.0
2016-Jan-27 02:31N 47°01' W 002°18'0 0.0
2016-Jan-27 01:32N 47°01' W 002°18'0 0.0
2016-Jan-27 00:19N 47°01' W 002°18'0 0.0
2016-Jan-26 22:33N 47°01' W 002°18'0 0.0
2016-Jan-26 21:17N 47°01' W 002°18'0 0.0
2016-Jan-26 13:33N 47°01' W 002°18'0 0.0
2016-Jan-26 12:33N 47°01' W 002°18'0 0.0
2016-Jan-26 10:28N 47°01' W 002°18'0 0.0
2016-Jan-26 08:27N 47°01' W 002°18'0 0.0
2016-Jan-26 07:32N 47°01' W 002°18'0 0.0
2016-Jan-26 06:33N 47°01' W 002°18'0 0.0
2016-Jan-26 05:33N 47°01' W 002°18'0 0.0
2016-Jan-26 04:32N 47°01' W 002°18'0 0.0
2016-Jan-26 03:33N 47°01' W 002°18'0 0.0
2016-Jan-26 02:33N 47°01' W 002°18'0 0.0
2016-Jan-26 01:33N 47°01' W 002°18'0 0.0
2016-Jan-26 00:33N 47°01' W 002°18'0 0.0
2016-Jan-25 23:31N 47°01' W 002°18'0 0.0
2016-Jan-25 22:33N 47°01' W 002°18'0 0.0
2016-Jan-25 21:32N 47°01' W 002°18'0 0.0
2016-Jan-25 20:32N 47°01' W 002°18'0 0.0
2016-Jan-25 19:34N 47°01' W 002°18'0 0.0
2016-Jan-25 17:10N 47°01' W 002°18'0 0.0
2016-Jan-25 16:33N 47°01' W 002°18'50 3.1
2016-Jan-25 00:21N 46°11' W 002°16'1 1.0
2016-Jan-24 23:32N 46°12' W 002°15'  
Track history (hours):
 
Tides and Currents Weather Stations Pressure Air Temp Water Temp Dewpoint Dewpoint Depression Visibility Wind Speed Wind Dir Waves Ship Positions

F/V Mare Liberum

Last reported at 2016-Feb-03 23:31 UTC. Time now 2016-Feb-06 00:14 UTC.
Position N 46°59' W 002°23'.

Length 21 m.

Type: Fishing. MMSI: 227426000.

Date/timePositionNaut miles runAvg speedWind from/ knotsBaromVisibWave heightAir tempDewpointWater temp
2016-Feb-03 23:31N 46°59' W 002°23'4 4.3
2016-Feb-03 22:33N 47°02' W 002°18'0 0.0
2016-Feb-03 21:33N 47°02' W 002°18'8 2.7
2016-Feb-03 18:27N 46°54' W 002°23'24 8.2
2016-Feb-03 15:32N 46°30' W 002°16'21 0.5
2016-Feb-02 00:28N 46°14' W 001°57'8 8.9
2016-Feb-01 23:33N 46°21' W 001°52'9 8.9
2016-Feb-01 22:33N 46°29' W 001°47'6 6.2
2016-Feb-01 21:33N 46°23' W 001°50'33 3.2
2016-Feb-01 11:13N 45°54' W 002°10'1 1.6
2016-Feb-01 10:29N 45°55' W 002°10'1 1.0
2016-Feb-01 09:31N 45°56' W 002°09'1 1.5
2016-Feb-01 08:32N 45°54' W 002°09'  
2016-Jan-28 03:05N 47°02' W 002°18'0 0.0
2016-Jan-28 02:28N 47°02' W 002°18'0 0.0
2016-Jan-27 23:05N 47°01' W 002°18'0 0.0
2016-Jan-27 05:30N 47°01' W 002°18'0 0.0
2016-Jan-27 04:33N 47°01' W 002°18'0 0.0
2016-Jan-27 03:29N 47°01' W 002°18'0 0.0
2016-Jan-27 02:31N 47°01' W 002°18'0 0.0
2016-Jan-27 01:32N 47°01' W 002°18'0 0.0
2016-Jan-27 00:19N 47°01' W 002°18'0 0.0
2016-Jan-26 22:33N 47°01' W 002°18'0 0.0
2016-Jan-26 21:17N 47°01' W 002°18'0 0.0
2016-Jan-26 13:33N 47°01' W 002°18'0 0.0
2016-Jan-26 12:33N 47°01' W 002°18'0 0.0
2016-Jan-26 10:28N 47°01' W 002°18'0 0.0
2016-Jan-26 08:27N 47°01' W 002°18'0 0.0
2016-Jan-26 07:32N 47°01' W 002°18'0 0.0
2016-Jan-26 06:33N 47°01' W 002°18'0 0.0
2016-Jan-26 05:33N 47°01' W 002°18'0 0.0
2016-Jan-26 04:32N 47°01' W 002°18'0 0.0
2016-Jan-26 03:33N 47°01' W 002°18'0 0.0
2016-Jan-26 02:33N 47°01' W 002°18'0 0.0
2016-Jan-26 01:33N 47°01' W 002°18'0 0.0
2016-Jan-26 00:33N 47°01' W 002°18'0 0.0
2016-Jan-25 23:31N 47°01' W 002°18'0 0.0
2016-Jan-25 22:33N 47°01' W 002°18'0 0.0
2016-Jan-25 21:32N 47°01' W 002°18'0 0.0
2016-Jan-25 20:32N 47°01' W 002°18'0 0.0
2016-Jan-25 19:34N 47°01' W 002°18'0 0.0
2016-Jan-25 17:10N 47°01' W 002°18'0 0.0
2016-Jan-25 16:33N 47°01' W 002°18'50 3.1
2016-Jan-25 00:21N 46°11' W 002°16'1 1.0
2016-Jan-24 23:32N 46°12' W 002°15'  

Dump ship's entire track history